sensor_id;sensor_type;location;lat;lon;timestamp;P1;durP1;ratioP1;P2;durP2;ratioP2
36443;SDS011;24692;45.642;13.806;2024-03-02T00:01:05;6.63;;;3.43;;
36443;SDS011;24692;45.642;13.806;2024-03-02T00:03:31;9.10;;;3.70;;
36443;SDS011;24692;45.642;13.806;2024-03-02T00:05:57;9.20;;;3.23;;
36443;SDS011;24692;45.642;13.806;2024-03-02T00:08:24;10.73;;;3.60;;
36443;SDS011;24692;45.642;13.806;2024-03-02T00:11:00;9.83;;;3.50;;
36443;SDS011;24692;45.642;13.806;2024-03-02T00:13:28;7.50;;;3.50;;
36443;SDS011;24692;45.642;13.806;2024-03-02T00:15:55;10.10;;;3.60;;
36443;SDS011;24692;45.642;13.806;2024-03-02T00:18:31;10.07;;;4.10;;
36443;SDS011;24692;45.642;13.806;2024-03-02T00:20:58;7.23;;;4.10;;
36443;SDS011;24692;45.642;13.806;2024-03-02T00:23:27;5.70;;;3.60;;
36443;SDS011;24692;45.642;13.806;2024-03-02T00:25:55;8.30;;;4.13;;
36443;SDS011;24692;45.642;13.806;2024-03-02T00:28:21;10.37;;;3.97;;
36443;SDS011;24692;45.642;13.806;2024-03-02T00:33:22;8.47;;;3.77;;
36443;SDS011;24692;45.642;13.806;2024-03-02T00:35:50;7.80;;;4.17;;
36443;SDS011;24692;45.642;13.806;2024-03-02T00:38:17;10.43;;;4.33;;
36443;SDS011;24692;45.642;13.806;2024-03-02T00:40:43;12.67;;;4.47;;
36443;SDS011;24692;45.642;13.806;2024-03-02T00:43:12;9.03;;;4.40;;
36443;SDS011;24692;45.642;13.806;2024-03-02T00:45:49;9.10;;;4.60;;
36443;SDS011;24692;45.642;13.806;2024-03-02T00:48:15;11.17;;;4.73;;
36443;SDS011;24692;45.642;13.806;2024-03-02T00:50:41;11.80;;;4.53;;
36443;SDS011;24692;45.642;13.806;2024-03-02T00:53:09;10.67;;;4.40;;
36443;SDS011;24692;45.642;13.806;2024-03-02T00:55:36;14.77;;;4.70;;
36443;SDS011;24692;45.642;13.806;2024-03-02T00:58:03;9.57;;;4.27;;
36443;SDS011;24692;45.642;13.806;2024-03-02T01:00:29;8.20;;;4.30;;
36443;SDS011;24692;45.642;13.806;2024-03-02T01:02:54;9.43;;;4.10;;
36443;SDS011;24692;45.642;13.806;2024-03-02T01:05:20;9.23;;;3.87;;
36443;SDS011;24692;45.642;13.806;2024-03-02T01:07:45;5.60;;;3.63;;
36443;SDS011;24692;45.642;13.806;2024-03-02T01:10:11;6.57;;;3.20;;
36443;SDS011;24692;45.642;13.806;2024-03-02T01:12:37;6.80;;;4.07;;
36443;SDS011;24692;45.642;13.806;2024-03-02T01:15:03;6.10;;;3.20;;
36443;SDS011;24692;45.642;13.806;2024-03-02T01:17:31;10.67;;;3.60;;
36443;SDS011;24692;45.642;13.806;2024-03-02T01:19:57;8.07;;;3.47;;
36443;SDS011;24692;45.642;13.806;2024-03-02T01:22:23;6.87;;;3.30;;
36443;SDS011;24692;45.642;13.806;2024-03-02T01:24:50;6.07;;;3.33;;
36443;SDS011;24692;45.642;13.806;2024-03-02T01:27:16;6.13;;;3.20;;
36443;SDS011;24692;45.642;13.806;2024-03-02T01:29:42;5.93;;;3.40;;
36443;SDS011;24692;45.642;13.806;2024-03-02T01:32:07;7.10;;;3.33;;
36443;SDS011;24692;45.642;13.806;2024-03-02T01:34:33;4.60;;;3.33;;
36443;SDS011;24692;45.642;13.806;2024-03-02T01:36:59;5.93;;;3.10;;
36443;SDS011;24692;45.642;13.806;2024-03-02T01:39:24;6.80;;;3.40;;
36443;SDS011;24692;45.642;13.806;2024-03-02T01:41:50;10.30;;;3.60;;
36443;SDS011;24692;45.642;13.806;2024-03-02T01:44:15;6.37;;;3.43;;
36443;SDS011;24692;45.642;13.806;2024-03-02T01:46:42;5.67;;;3.17;;
36443;SDS011;24692;45.642;13.806;2024-03-02T01:49:07;5.23;;;3.17;;
36443;SDS011;24692;45.642;13.806;2024-03-02T01:51:33;5.70;;;3.00;;
36443;SDS011;24692;45.642;13.806;2024-03-02T01:53:59;6.70;;;3.00;;
36443;SDS011;24692;45.642;13.806;2024-03-02T01:56:24;5.33;;;3.13;;
36443;SDS011;24692;45.642;13.806;2024-03-02T01:58:50;6.30;;;3.07;;
36443;SDS011;24692;45.642;13.806;2024-03-02T02:01:16;4.40;;;3.13;;
36443;SDS011;24692;45.642;13.806;2024-03-02T02:03:43;6.27;;;3.10;;
36443;SDS011;24692;45.642;13.806;2024-03-02T02:06:09;3.70;;;3.10;;
36443;SDS011;24692;45.642;13.806;2024-03-02T02:08:36;6.30;;;3.50;;
36443;SDS011;24692;45.642;13.806;2024-03-02T02:11:02;5.03;;;3.27;;
36443;SDS011;24692;45.642;13.806;2024-03-02T02:13:28;7.87;;;3.57;;
36443;SDS011;24692;45.642;13.806;2024-03-02T02:15:54;9.60;;;4.13;;
36443;SDS011;24692;45.642;13.806;2024-03-02T02:18:20;6.27;;;4.00;;
36443;SDS011;24692;45.642;13.806;2024-03-02T02:20:45;8.53;;;3.80;;
36443;SDS011;24692;45.642;13.806;2024-03-02T02:23:11;7.57;;;3.53;;
36443;SDS011;24692;45.642;13.806;2024-03-02T02:25:38;8.37;;;3.70;;
36443;SDS011;24692;45.642;13.806;2024-03-02T02:28:04;7.90;;;3.50;;
36443;SDS011;24692;45.642;13.806;2024-03-02T02:30:30;7.87;;;3.57;;
36443;SDS011;24692;45.642;13.806;2024-03-02T02:32:57;6.17;;;3.67;;
36443;SDS011;24692;45.642;13.806;2024-03-02T02:35:23;7.93;;;3.80;;
36443;SDS011;24692;45.642;13.806;2024-03-02T02:37:49;8.30;;;3.93;;
36443;SDS011;24692;45.642;13.806;2024-03-02T02:40:17;6.23;;;3.60;;
36443;SDS011;24692;45.642;13.806;2024-03-02T02:42:46;5.17;;;3.40;;
36443;SDS011;24692;45.642;13.806;2024-03-02T02:45:12;12.30;;;3.97;;
36443;SDS011;24692;45.642;13.806;2024-03-02T02:47:39;7.20;;;3.30;;
36443;SDS011;24692;45.642;13.806;2024-03-02T02:50:07;5.50;;;3.27;;
36443;SDS011;24692;45.642;13.806;2024-03-02T02:52:33;7.97;;;3.43;;
36443;SDS011;24692;45.642;13.806;2024-03-02T02:55:01;6.23;;;2.90;;
36443;SDS011;24692;45.642;13.806;2024-03-02T02:57:28;5.73;;;2.73;;
36443;SDS011;24692;45.642;13.806;2024-03-02T02:59:56;5.40;;;3.10;;
36443;SDS011;24692;45.642;13.806;2024-03-02T03:02:22;9.50;;;2.90;;
36443;SDS011;24692;45.642;13.806;2024-03-02T03:04:47;4.63;;;2.40;;
36443;SDS011;24692;45.642;13.806;2024-03-02T03:07:13;4.83;;;2.30;;
36443;SDS011;24692;45.642;13.806;2024-03-02T03:09:39;4.30;;;2.13;;
36443;SDS011;24692;45.642;13.806;2024-03-02T03:12:04;4.47;;;2.10;;
36443;SDS011;24692;45.642;13.806;2024-03-02T03:14:30;3.40;;;2.17;;
36443;SDS011;24692;45.642;13.806;2024-03-02T03:16:56;4.10;;;2.30;;
36443;SDS011;24692;45.642;13.806;2024-03-02T03:19:21;5.77;;;1.80;;
36443;SDS011;24692;45.642;13.806;2024-03-02T03:21:47;3.00;;;1.73;;
36443;SDS011;24692;45.642;13.806;2024-03-02T03:24:12;6.77;;;1.63;;
36443;SDS011;24692;45.642;13.806;2024-03-02T03:26:38;2.00;;;1.60;;
36443;SDS011;24692;45.642;13.806;2024-03-02T03:29:04;2.70;;;1.50;;
36443;SDS011;24692;45.642;13.806;2024-03-02T03:31:29;3.73;;;1.50;;
36443;SDS011;24692;45.642;13.806;2024-03-02T03:33:55;4.10;;;1.80;;
36443;SDS011;24692;45.642;13.806;2024-03-02T03:36:21;1.80;;;1.20;;
36443;SDS011;24692;45.642;13.806;2024-03-02T03:38:46;3.67;;;1.47;;
36443;SDS011;24692;45.642;13.806;2024-03-02T03:41:13;1.47;;;1.37;;
36443;SDS011;24692;45.642;13.806;2024-03-02T03:43:38;1.20;;;1.10;;
36443;SDS011;24692;45.642;13.806;2024-03-02T03:46:04;2.90;;;1.17;;
36443;SDS011;24692;45.642;13.806;2024-03-02T03:48:30;1.83;;;1.10;;
36443;SDS011;24692;45.642;13.806;2024-03-02T03:50:56;1.70;;;0.90;;
36443;SDS011;24692;45.642;13.806;2024-03-02T03:53:22;1.90;;;1.00;;
36443;SDS011;24692;45.642;13.806;2024-03-02T03:55:48;1.73;;;0.90;;
36443;SDS011;24692;45.642;13.806;2024-03-02T03:58:14;1.10;;;0.80;;
36443;SDS011;24692;45.642;13.806;2024-03-02T04:00:42;1.97;;;0.90;;
36443;SDS011;24692;45.642;13.806;2024-03-02T04:03:07;1.53;;;1.10;;
36443;SDS011;24692;45.642;13.806;2024-03-02T04:05:33;1.83;;;0.90;;
36443;SDS011;24692;45.642;13.806;2024-03-02T04:08:00;1.63;;;0.80;;
36443;SDS011;24692;45.642;13.806;2024-03-02T04:10:27;2.83;;;0.90;;
36443;SDS011;24692;45.642;13.806;2024-03-02T04:12:52;2.57;;;0.70;;
36443;SDS011;24692;45.642;13.806;2024-03-02T04:15:18;0.97;;;0.80;;
36443;SDS011;24692;45.642;13.806;2024-03-02T04:17:44;1.83;;;0.90;;
36443;SDS011;24692;45.642;13.806;2024-03-02T04:20:10;1.40;;;0.80;;
36443;SDS011;24692;45.642;13.806;2024-03-02T04:22:37;0.93;;;0.60;;
36443;SDS011;24692;45.642;13.806;2024-03-02T04:25:03;1.13;;;0.80;;
36443;SDS011;24692;45.642;13.806;2024-03-02T04:27:32;1.37;;;0.60;;
36443;SDS011;24692;45.642;13.806;2024-03-02T04:29:58;1.07;;;0.67;;
36443;SDS011;24692;45.642;13.806;2024-03-02T04:32:25;0.77;;;0.60;;
36443;SDS011;24692;45.642;13.806;2024-03-02T04:34:54;0.57;;;0.57;;
36443;SDS011;24692;45.642;13.806;2024-03-02T04:37:20;2.73;;;0.80;;
36443;SDS011;24692;45.642;13.806;2024-03-02T04:39:45;1.80;;;0.60;;
36443;SDS011;24692;45.642;13.806;2024-03-02T04:42:11;1.67;;;0.70;;
36443;SDS011;24692;45.642;13.806;2024-03-02T04:44:37;2.60;;;0.90;;
36443;SDS011;24692;45.642;13.806;2024-03-02T04:47:03;1.63;;;0.70;;
36443;SDS011;24692;45.642;13.806;2024-03-02T04:49:29;1.10;;;0.80;;
36443;SDS011;24692;45.642;13.806;2024-03-02T04:51:55;0.80;;;0.60;;
36443;SDS011;24692;45.642;13.806;2024-03-02T04:54:22;1.17;;;0.70;;
36443;SDS011;24692;45.642;13.806;2024-03-02T04:56:47;1.53;;;0.67;;
36443;SDS011;24692;45.642;13.806;2024-03-02T04:59:19;2.13;;;0.70;;
36443;SDS011;24692;45.642;13.806;2024-03-02T05:01:45;1.80;;;0.50;;
36443;SDS011;24692;45.642;13.806;2024-03-02T05:04:11;0.60;;;0.40;;
36443;SDS011;24692;45.642;13.806;2024-03-02T05:06:37;1.07;;;0.40;;
36443;SDS011;24692;45.642;13.806;2024-03-02T05:09:05;1.80;;;0.50;;
36443;SDS011;24692;45.642;13.806;2024-03-02T05:11:31;2.23;;;0.60;;
36443;SDS011;24692;45.642;13.806;2024-03-02T05:14:03;3.07;;;1.00;;
36443;SDS011;24692;45.642;13.806;2024-03-02T05:16:29;2.07;;;0.50;;
36443;SDS011;24692;45.642;13.806;2024-03-02T05:18:58;2.00;;;0.50;;
36443;SDS011;24692;45.642;13.806;2024-03-02T05:21:24;0.93;;;0.60;;
36443;SDS011;24692;45.642;13.806;2024-03-02T05:23:50;0.60;;;0.60;;
36443;SDS011;24692;45.642;13.806;2024-03-02T05:26:15;1.10;;;0.60;;
36443;SDS011;24692;45.642;13.806;2024-03-02T05:28:41;0.40;;;0.40;;
36443;SDS011;24692;45.642;13.806;2024-03-02T05:31:10;2.10;;;0.60;;
36443;SDS011;24692;45.642;13.806;2024-03-02T05:33:37;0.57;;;0.47;;
36443;SDS011;24692;45.642;13.806;2024-03-02T05:36:03;0.50;;;0.50;;
36443;SDS011;24692;45.642;13.806;2024-03-02T05:38:30;0.50;;;0.50;;
36443;SDS011;24692;45.642;13.806;2024-03-02T05:40:56;0.60;;;0.60;;
36443;SDS011;24692;45.642;13.806;2024-03-02T05:43:21;0.87;;;0.50;;
36443;SDS011;24692;45.642;13.806;2024-03-02T05:45:47;0.93;;;0.70;;
36443;SDS011;24692;45.642;13.806;2024-03-02T05:48:12;1.23;;;0.90;;
36443;SDS011;24692;45.642;13.806;2024-03-02T05:50:38;1.50;;;1.00;;
36443;SDS011;24692;45.642;13.806;2024-03-02T05:53:04;1.97;;;1.57;;
36443;SDS011;24692;45.642;13.806;2024-03-02T05:55:29;2.97;;;1.40;;
36443;SDS011;24692;45.642;13.806;2024-03-02T05:57:56;2.93;;;1.60;;
36443;SDS011;24692;45.642;13.806;2024-03-02T06:00:30;3.40;;;1.43;;
36443;SDS011;24692;45.642;13.806;2024-03-02T06:02:57;2.93;;;1.40;;
36443;SDS011;24692;45.642;13.806;2024-03-02T06:05:23;1.67;;;1.07;;
36443;SDS011;24692;45.642;13.806;2024-03-02T06:07:49;2.53;;;1.10;;
36443;SDS011;24692;45.642;13.806;2024-03-02T06:10:15;2.73;;;0.90;;
36443;SDS011;24692;45.642;13.806;2024-03-02T06:12:41;2.50;;;0.90;;
36443;SDS011;24692;45.642;13.806;2024-03-02T06:15:07;0.93;;;0.73;;
36443;SDS011;24692;45.642;13.806;2024-03-02T06:17:34;2.17;;;0.80;;
36443;SDS011;24692;45.642;13.806;2024-03-02T06:20:00;3.63;;;1.40;;
36443;SDS011;24692;45.642;13.806;2024-03-02T06:22:26;4.10;;;1.50;;
36443;SDS011;24692;45.642;13.806;2024-03-02T06:24:52;5.13;;;1.70;;
36443;SDS011;24692;45.642;13.806;2024-03-02T06:27:17;1.23;;;1.03;;
36443;SDS011;24692;45.642;13.806;2024-03-02T06:29:43;3.23;;;1.10;;
36443;SDS011;24692;45.642;13.806;2024-03-02T06:32:08;1.37;;;0.97;;
36443;SDS011;24692;45.642;13.806;2024-03-02T06:34:34;1.60;;;0.93;;
36443;SDS011;24692;45.642;13.806;2024-03-02T06:37:00;3.90;;;0.90;;
36443;SDS011;24692;45.642;13.806;2024-03-02T06:39:25;1.13;;;0.87;;
36443;SDS011;24692;45.642;13.806;2024-03-02T06:41:51;1.20;;;1.10;;
36443;SDS011;24692;45.642;13.806;2024-03-02T06:44:17;2.00;;;1.30;;
36443;SDS011;24692;45.642;13.806;2024-03-02T06:46:43;2.67;;;1.50;;
36443;SDS011;24692;45.642;13.806;2024-03-02T06:49:08;3.67;;;1.50;;
36443;SDS011;24692;45.642;13.806;2024-03-02T06:51:35;2.60;;;1.47;;
36443;SDS011;24692;45.642;13.806;2024-03-02T06:54:01;1.63;;;1.07;;
36443;SDS011;24692;45.642;13.806;2024-03-02T06:56:27;3.67;;;1.30;;
36443;SDS011;24692;45.642;13.806;2024-03-02T06:58:53;1.20;;;1.10;;
36443;SDS011;24692;45.642;13.806;2024-03-02T07:01:19;2.03;;;1.40;;
36443;SDS011;24692;45.642;13.806;2024-03-02T07:03:45;1.50;;;1.40;;
36443;SDS011;24692;45.642;13.806;2024-03-02T07:06:11;2.07;;;1.50;;
36443;SDS011;24692;45.642;13.806;2024-03-02T07:08:36;3.50;;;1.47;;
36443;SDS011;24692;45.642;13.806;2024-03-02T07:11:02;1.40;;;1.07;;
36443;SDS011;24692;45.642;13.806;2024-03-02T07:13:28;3.73;;;1.10;;
36443;SDS011;24692;45.642;13.806;2024-03-02T07:15:53;0.67;;;0.67;;
36443;SDS011;24692;45.642;13.806;2024-03-02T07:18:29;2.33;;;0.73;;
36443;SDS011;24692;45.642;13.806;2024-03-02T07:20:56;2.27;;;0.83;;
36443;SDS011;24692;45.642;13.806;2024-03-02T07:23:24;1.23;;;0.80;;
36443;SDS011;24692;45.642;13.806;2024-03-02T07:25:52;1.47;;;0.70;;
36443;SDS011;24692;45.642;13.806;2024-03-02T07:28:22;1.37;;;0.80;;
36443;SDS011;24692;45.642;13.806;2024-03-02T07:30:57;0.70;;;0.70;;
36443;SDS011;24692;45.642;13.806;2024-03-02T07:33:29;1.30;;;1.17;;
36443;SDS011;24692;45.642;13.806;2024-03-02T07:35:55;1.17;;;1.00;;
36443;SDS011;24692;45.642;13.806;2024-03-02T07:38:22;3.33;;;1.10;;
36443;SDS011;24692;45.642;13.806;2024-03-02T07:40:48;1.77;;;1.10;;
36443;SDS011;24692;45.642;13.806;2024-03-02T07:43:18;1.00;;;0.80;;
36443;SDS011;24692;45.642;13.806;2024-03-02T07:45:44;0.80;;;0.80;;
36443;SDS011;24692;45.642;13.806;2024-03-02T07:48:11;2.27;;;0.67;;
36443;SDS011;24692;45.642;13.806;2024-03-02T07:50:36;1.07;;;0.80;;
36443;SDS011;24692;45.642;13.806;2024-03-02T07:53:04;0.80;;;0.60;;
36443;SDS011;24692;45.642;13.806;2024-03-02T07:55:30;1.20;;;0.80;;
36443;SDS011;24692;45.642;13.806;2024-03-02T07:57:56;1.97;;;0.80;;
36443;SDS011;24692;45.642;13.806;2024-03-02T08:00:23;1.00;;;0.70;;
36443;SDS011;24692;45.642;13.806;2024-03-02T08:02:49;1.33;;;1.07;;
36443;SDS011;24692;45.642;13.806;2024-03-02T08:05:16;1.30;;;0.90;;
36443;SDS011;24692;45.642;13.806;2024-03-02T08:07:44;1.60;;;1.00;;
36443;SDS011;24692;45.642;13.806;2024-03-02T08:10:10;2.77;;;1.10;;
36443;SDS011;24692;45.642;13.806;2024-03-02T08:12:36;1.47;;;1.13;;
36443;SDS011;24692;45.642;13.806;2024-03-02T08:15:01;1.63;;;1.07;;
36443;SDS011;24692;45.642;13.806;2024-03-02T08:17:27;2.20;;;1.10;;
36443;SDS011;24692;45.642;13.806;2024-03-02T08:19:53;3.17;;;1.10;;
36443;SDS011;24692;45.642;13.806;2024-03-02T08:22:19;3.43;;;1.30;;
36443;SDS011;24692;45.642;13.806;2024-03-02T08:24:45;1.93;;;0.80;;
36443;SDS011;24692;45.642;13.806;2024-03-02T08:27:11;1.60;;;1.00;;
36443;SDS011;24692;45.642;13.806;2024-03-02T08:29:37;2.40;;;1.00;;
36443;SDS011;24692;45.642;13.806;2024-03-02T08:32:03;1.30;;;1.10;;
36443;SDS011;24692;45.642;13.806;2024-03-02T08:34:30;1.40;;;1.30;;
36443;SDS011;24692;45.642;13.806;2024-03-02T08:36:55;1.90;;;1.40;;
36443;SDS011;24692;45.642;13.806;2024-03-02T08:39:21;1.33;;;1.03;;
36443;SDS011;24692;45.642;13.806;2024-03-02T08:41:47;1.53;;;1.07;;
36443;SDS011;24692;45.642;13.806;2024-03-02T08:44:13;3.13;;;1.00;;
36443;SDS011;24692;45.642;13.806;2024-03-02T08:46:40;1.10;;;1.00;;
36443;SDS011;24692;45.642;13.806;2024-03-02T08:49:06;1.33;;;0.80;;
36443;SDS011;24692;45.642;13.806;2024-03-02T08:51:32;1.43;;;1.07;;
36443;SDS011;24692;45.642;13.806;2024-03-02T08:53:58;1.30;;;0.97;;
36443;SDS011;24692;45.642;13.806;2024-03-02T08:56:24;2.83;;;1.03;;
36443;SDS011;24692;45.642;13.806;2024-03-02T08:58:50;0.87;;;0.87;;
36443;SDS011;24692;45.642;13.806;2024-03-02T09:01:17;1.67;;;1.00;;
36443;SDS011;24692;45.642;13.806;2024-03-02T09:03:43;3.40;;;1.10;;
36443;SDS011;24692;45.642;13.806;2024-03-02T09:06:13;2.07;;;1.00;;
36443;SDS011;24692;45.642;13.806;2024-03-02T09:08:39;1.30;;;0.90;;
36443;SDS011;24692;45.642;13.806;2024-03-02T09:11:05;1.37;;;1.03;;
36443;SDS011;24692;45.642;13.806;2024-03-02T09:13:32;3.03;;;1.03;;
36443;SDS011;24692;45.642;13.806;2024-03-02T09:15:58;2.70;;;1.13;;
36443;SDS011;24692;45.642;13.806;2024-03-02T09:18:24;0.70;;;0.70;;
36443;SDS011;24692;45.642;13.806;2024-03-02T09:20:49;1.03;;;0.60;;
36443;SDS011;24692;45.642;13.806;2024-03-02T09:23:15;0.67;;;0.67;;
36443;SDS011;24692;45.642;13.806;2024-03-02T09:25:41;2.00;;;0.80;;
36443;SDS011;24692;45.642;13.806;2024-03-02T09:28:06;0.70;;;0.70;;
36443;SDS011;24692;45.642;13.806;2024-03-02T09:30:32;2.83;;;1.10;;
36443;SDS011;24692;45.642;13.806;2024-03-02T09:32:58;2.10;;;1.00;;
36443;SDS011;24692;45.642;13.806;2024-03-02T09:35:24;0.97;;;0.73;;
36443;SDS011;24692;45.642;13.806;2024-03-02T09:37:49;1.37;;;0.80;;
36443;SDS011;24692;45.642;13.806;2024-03-02T09:40:16;1.40;;;0.65;;
36443;SDS011;24692;45.642;13.806;2024-03-02T09:42:41;0.80;;;0.70;;
36443;SDS011;24692;45.642;13.806;2024-03-02T09:45:09;0.85;;;0.70;;
36443;SDS011;24692;45.642;13.806;2024-03-02T09:47:35;2.20;;;0.90;;
36443;SDS011;24692;45.642;13.806;2024-03-02T09:50:01;1.67;;;1.00;;
36443;SDS011;24692;45.642;13.806;2024-03-02T09:52:26;1.97;;;0.70;;
36443;SDS011;24692;45.642;13.806;2024-03-02T09:54:52;1.90;;;0.70;;
36443;SDS011;24692;45.642;13.806;2024-03-02T09:57:18;2.33;;;0.93;;
36443;SDS011;24692;45.642;13.806;2024-03-02T09:59:44;2.93;;;0.87;;
36443;SDS011;24692;45.642;13.806;2024-03-02T10:02:10;2.87;;;0.80;;
36443;SDS011;24692;45.642;13.806;2024-03-02T10:04:36;1.50;;;0.83;;
36443;SDS011;24692;45.642;13.806;2024-03-02T10:09:41;1.60;;;0.70;;
36443;SDS011;24692;45.642;13.806;2024-03-02T10:12:08;3.70;;;0.75;;
36443;SDS011;24692;45.642;13.806;2024-03-02T10:14:34;1.25;;;0.60;;
36443;SDS011;24692;45.642;13.806;2024-03-02T10:17:10;2.05;;;0.65;;
36443;SDS011;24692;45.642;13.806;2024-03-02T10:19:38;2.10;;;0.90;;
36443;SDS011;24692;45.642;13.806;2024-03-02T10:22:05;2.05;;;0.73;;
36443;SDS011;24692;45.642;13.806;2024-03-02T10:24:38;3.05;;;0.80;;
36443;SDS011;24692;45.642;13.806;2024-03-02T10:27:09;1.23;;;0.77;;
36443;SDS011;24692;45.642;13.806;2024-03-02T10:29:39;1.23;;;0.75;;
36443;SDS011;24692;45.642;13.806;2024-03-02T10:32:05;2.20;;;0.80;;
36443;SDS011;24692;45.642;13.806;2024-03-02T10:34:35;0.60;;;0.60;;
36443;SDS011;24692;45.642;13.806;2024-03-02T10:37:01;2.63;;;0.75;;
36443;SDS011;24692;45.642;13.806;2024-03-02T10:39:27;1.45;;;0.73;;
36443;SDS011;24692;45.642;13.806;2024-03-02T10:41:53;2.03;;;0.70;;
36443;SDS011;24692;45.642;13.806;2024-03-02T10:44:22;1.90;;;0.70;;
36443;SDS011;24692;45.642;13.806;2024-03-02T10:46:49;3.50;;;1.10;;
36443;SDS011;24692;45.642;13.806;2024-03-02T10:49:15;2.13;;;0.90;;
36443;SDS011;24692;45.642;13.806;2024-03-02T10:51:42;0.73;;;0.73;;
36443;SDS011;24692;45.642;13.806;2024-03-02T10:54:08;2.90;;;0.80;;
36443;SDS011;24692;45.642;13.806;2024-03-02T10:56:40;2.73;;;0.97;;
36443;SDS011;24692;45.642;13.806;2024-03-02T11:01:57;2.33;;;0.90;;
36443;SDS011;24692;45.642;13.806;2024-03-02T11:04:24;1.13;;;0.90;;
36443;SDS011;24692;45.642;13.806;2024-03-02T11:06:51;3.50;;;1.00;;
36443;SDS011;24692;45.642;13.806;2024-03-02T11:09:21;2.30;;;1.20;;
36443;SDS011;24692;45.642;13.806;2024-03-02T11:11:52;2.05;;;0.98;;
36443;SDS011;24692;45.642;13.806;2024-03-02T11:14:25;1.87;;;1.00;;
36443;SDS011;24692;45.642;13.806;2024-03-02T11:16:51;3.50;;;1.07;;
36443;SDS011;24692;45.642;13.806;2024-03-02T11:19:17;2.83;;;1.40;;
36443;SDS011;24692;45.642;13.806;2024-03-02T11:21:43;3.60;;;1.27;;
36443;SDS011;24692;45.642;13.806;2024-03-02T11:26:52;4.10;;;1.37;;
36443;SDS011;24692;45.642;13.806;2024-03-02T11:32:04;2.03;;;1.10;;
36443;SDS011;24692;45.642;13.806;2024-03-02T11:34:31;1.97;;;0.80;;
36443;SDS011;24692;45.642;13.806;2024-03-02T11:37:03;1.97;;;0.90;;
36443;SDS011;24692;45.642;13.806;2024-03-02T11:39:29;2.97;;;0.87;;
36443;SDS011;24692;45.642;13.806;2024-03-02T11:41:56;3.80;;;1.30;;
36443;SDS011;24692;45.642;13.806;2024-03-02T11:44:22;5.43;;;1.17;;
36443;SDS011;24692;45.642;13.806;2024-03-02T11:46:52;5.13;;;1.30;;
36443;SDS011;24692;45.642;13.806;2024-03-02T11:49:36;3.00;;;1.30;;
36443;SDS011;24692;45.642;13.806;2024-03-02T11:52:14;5.20;;;1.43;;
36443;SDS011;24692;45.642;13.806;2024-03-02T11:54:42;3.83;;;1.30;;
36443;SDS011;24692;45.642;13.806;2024-03-02T11:57:16;2.77;;;1.50;;
36443;SDS011;24692;45.642;13.806;2024-03-02T11:59:44;7.83;;;1.93;;
36443;SDS011;24692;45.642;13.806;2024-03-02T12:02:20;1.77;;;1.10;;
36443;SDS011;24692;45.642;13.806;2024-03-02T12:04:47;4.37;;;1.47;;
36443;SDS011;24692;45.642;13.806;2024-03-02T12:07:20;4.67;;;1.80;;
36443;SDS011;24692;45.642;13.806;2024-03-02T12:09:47;3.90;;;2.40;;
36443;SDS011;24692;45.642;13.806;2024-03-02T12:12:13;7.03;;;2.90;;
36443;SDS011;24692;45.642;13.806;2024-03-02T12:14:51;7.00;;;2.50;;
36443;SDS011;24692;45.642;13.806;2024-03-02T12:17:18;7.73;;;3.30;;
36443;SDS011;24692;45.642;13.806;2024-03-02T12:19:44;5.27;;;2.57;;
36443;SDS011;24692;45.642;13.806;2024-03-02T12:22:11;4.40;;;2.20;;
36443;SDS011;24692;45.642;13.806;2024-03-02T12:24:37;4.00;;;2.00;;
36443;SDS011;24692;45.642;13.806;2024-03-02T12:27:03;2.53;;;1.73;;
36443;SDS011;24692;45.642;13.806;2024-03-02T12:29:30;3.50;;;2.13;;
36443;SDS011;24692;45.642;13.806;2024-03-02T12:31:56;3.23;;;1.60;;
36443;SDS011;24692;45.642;13.806;2024-03-02T12:34:22;3.70;;;1.90;;
36443;SDS011;24692;45.642;13.806;2024-03-02T12:36:48;2.93;;;1.77;;
36443;SDS011;24692;45.642;13.806;2024-03-02T12:39:17;3.73;;;1.60;;
36443;SDS011;24692;45.642;13.806;2024-03-02T12:41:44;3.17;;;1.37;;
36443;SDS011;24692;45.642;13.806;2024-03-02T12:44:15;3.77;;;2.00;;
36443;SDS011;24692;45.642;13.806;2024-03-02T12:46:44;2.40;;;0.93;;
36443;SDS011;24692;45.642;13.806;2024-03-02T12:49:12;0.97;;;0.70;;
36443;SDS011;24692;45.642;13.806;2024-03-02T12:51:39;3.97;;;1.50;;
36443;SDS011;24692;45.642;13.806;2024-03-02T12:54:06;1.57;;;1.00;;
36443;SDS011;24692;45.642;13.806;2024-03-02T12:56:33;2.93;;;1.60;;
36443;SDS011;24692;45.642;13.806;2024-03-02T12:59:00;4.00;;;1.87;;
36443;SDS011;24692;45.642;13.806;2024-03-02T13:01:26;3.37;;;2.07;;
36443;SDS011;24692;45.642;13.806;2024-03-02T13:03:52;5.87;;;2.83;;
36443;SDS011;24692;45.642;13.806;2024-03-02T13:06:20;5.00;;;2.93;;
36443;SDS011;24692;45.642;13.806;2024-03-02T13:08:46;6.47;;;2.77;;
36443;SDS011;24692;45.642;13.806;2024-03-02T13:11:12;9.70;;;5.13;;
36443;SDS011;24692;45.642;13.806;2024-03-02T13:13:39;12.87;;;6.40;;
36443;SDS011;24692;45.642;13.806;2024-03-02T13:16:11;12.17;;;6.37;;
36443;SDS011;24692;45.642;13.806;2024-03-02T13:18:38;15.27;;;7.27;;
36443;SDS011;24692;45.642;13.806;2024-03-02T13:21:05;11.83;;;7.03;;
36443;SDS011;24692;45.642;13.806;2024-03-02T13:23:31;10.80;;;6.93;;
36443;SDS011;24692;45.642;13.806;2024-03-02T13:25:57;12.27;;;6.57;;
36443;SDS011;24692;45.642;13.806;2024-03-02T13:28:23;8.60;;;5.47;;
36443;SDS011;24692;45.642;13.806;2024-03-02T13:30:52;7.80;;;5.00;;
36443;SDS011;24692;45.642;13.806;2024-03-02T13:33:18;8.00;;;4.13;;
36443;SDS011;24692;45.642;13.806;2024-03-02T13:35:47;6.43;;;3.60;;
36443;SDS011;24692;45.642;13.806;2024-03-02T13:38:15;5.37;;;2.60;;
36443;SDS011;24692;45.642;13.806;2024-03-02T13:40:41;3.73;;;2.23;;
36443;SDS011;24692;45.642;13.806;2024-03-02T13:43:07;3.77;;;2.60;;
36443;SDS011;24692;45.642;13.806;2024-03-02T13:45:33;3.80;;;2.70;;
36443;SDS011;24692;45.642;13.806;2024-03-02T13:47:59;3.80;;;2.73;;
36443;SDS011;24692;45.642;13.806;2024-03-02T13:50:27;4.97;;;3.63;;
36443;SDS011;24692;45.642;13.806;2024-03-02T13:52:54;7.63;;;4.27;;
36443;SDS011;24692;45.642;13.806;2024-03-02T13:55:19;6.37;;;4.10;;
36443;SDS011;24692;45.642;13.806;2024-03-02T13:57:45;9.63;;;5.73;;
36443;SDS011;24692;45.642;13.806;2024-03-02T14:00:11;5.47;;;3.53;;
36443;SDS011;24692;45.642;13.806;2024-03-02T14:02:38;4.37;;;2.50;;
36443;SDS011;24692;45.642;13.806;2024-03-02T14:05:04;5.47;;;2.50;;
36443;SDS011;24692;45.642;13.806;2024-03-02T14:07:30;7.77;;;2.97;;
36443;SDS011;24692;45.642;13.806;2024-03-02T14:09:56;7.73;;;3.80;;
36443;SDS011;24692;45.642;13.806;2024-03-02T14:12:22;2.90;;;1.80;;
36443;SDS011;24692;45.642;13.806;2024-03-02T14:14:47;5.80;;;2.47;;
36443;SDS011;24692;45.642;13.806;2024-03-02T14:17:16;5.33;;;2.20;;
36443;SDS011;24692;45.642;13.806;2024-03-02T14:19:41;5.90;;;2.70;;
36443;SDS011;24692;45.642;13.806;2024-03-02T14:22:07;5.33;;;2.03;;
36443;SDS011;24692;45.642;13.806;2024-03-02T14:24:33;6.83;;;3.00;;
36443;SDS011;24692;45.642;13.806;2024-03-02T14:26:58;6.30;;;3.47;;
36443;SDS011;24692;45.642;13.806;2024-03-02T14:29:27;5.37;;;3.57;;
36443;SDS011;24692;45.642;13.806;2024-03-02T14:31:52;4.40;;;3.00;;
36443;SDS011;24692;45.642;13.806;2024-03-02T14:34:18;5.03;;;3.13;;
36443;SDS011;24692;45.642;13.806;2024-03-02T14:36:43;4.50;;;2.50;;
36443;SDS011;24692;45.642;13.806;2024-03-02T14:39:10;5.67;;;2.90;;
36443;SDS011;24692;45.642;13.806;2024-03-02T14:41:36;3.93;;;2.80;;
36443;SDS011;24692;45.642;13.806;2024-03-02T14:44:02;4.30;;;3.03;;